首页
METAR-TAF:

METAR-TAF

机场 :

Clearfield-Lawrence Airport

Clearfield, 宾夕法尼亚州, 美国

纬度: 41-02-48N, 经度: 078-24-42W, 海拔: 462米

当前天气观测

该预报发布于26分钟前的17:54 UTC
风速17节,风向西北,有时为26节阵风
温度 12°C
湿度 35%
气压 1013 hPa
能見度: 16.1公里
多云层高于6000英尺

METAR: KFIG 021754Z AUTO 32017G26KT 10SM BKN060 12/M03 A2991 RMK AO2 PK WND 33034/1744 SLP133 T01171033 10117 20022 58014

时间: 14:20 (18:20 UTC)


TAF: 丢失

超过4000个机场的气象观测和天气预报(METAR&TAF报告)。

可查询的气象台以黄色和红色小点在地图上表示。

将鼠标移到小点上方,可查看气象台名称。

然后点击查看天气观测和预报。

如需切换地图:点击带黑十字的绿色按钮放大地图;点击带横线的绿色按钮缩小地图;或者点击绿色箭头查看邻近地区的地图。


METAR-TAF: